Home > Products > Valid Products > TAF

000
FTUS42 KGSP 180405 AAB
TAFCLT
TAF AMD
KCLT 180405Z 1804/1824 00000KT P6SM SCT015 OVC140
      TEMPO 1804/1806 5SM -SHRA BR BKN015 OVC140
     FM180600 00000KT 5SM BR BKN008
     FM181100 01003KT 5SM BR BKN015
     FM181300 04003KT P6SM BKN015
     FM181800 07005KT P6SM BKN025=



000
FTUS42 KGSP 180405 AAB
TAFCLT
TAF AMD
KCLT 180405Z 1804/1824 00000KT P6SM SCT015 OVC140
      TEMPO 1804/1806 5SM -SHRA BR BKN015 OVC140
     FM180600 00000KT 5SM BR BKN008
     FM181100 01003KT 5SM BR BKN015
     FM181300 04003KT P6SM BKN015
     FM181800 07005KT P6SM BKN025=



000
FTUS42 KGSP 180343 AAA
TAFAVL
TAF AMD
KAVL 180343Z 1804/1824 00000KT P6SM SCT004 BKN100
      TEMPO 1804/1806 5SM -SHRA BR BKN004 OVC100
     FM180600 32003KT 5SM BR BKN025
     FM181000 34003KT P6SM BKN035
     FM181900 17003KT P6SM BKN045=



000
FTUS42 KGSP 180343 AAA
TAFAVL
TAF AMD
KAVL 180343Z 1804/1824 00000KT P6SM SCT004 BKN100
      TEMPO 1804/1806 5SM -SHRA BR BKN004 OVC100
     FM180600 32003KT 5SM BR BKN025
     FM181000 34003KT P6SM BKN035
     FM181900 17003KT P6SM BKN045=



000
FTUS42 KGSP 180321 AAB
TAFGSP
TAF AMD
KGSP 180321Z 1803/1824 00000KT 3SM -SHRA BR SCT005 OVC090
      TEMPO 1803/1806 1 1/2SM SHRA BR BKN005 OVC090
     FM180600 00000KT 4SM BR VCSH BKN005
     FM181300 03002KT 6SM BR BKN008
     FM181500 04005KT P6SM BKN025
     FM181900 07005KT P6SM BKN040=



000
FTUS42 KGSP 180247 AAA
TAFCLT
TAF AMD
KCLT 180247Z 1803/1824 26003KT P6SM VCSH FEW015 BKN035
     FM180400 26003KT P6SM -SHRA OVC015
     FM180600 00000KT 5SM BR BKN008
     FM181100 01003KT 5SM BR BKN015
     FM181300 04003KT P6SM BKN015
     FM181800 07005KT P6SM BKN025=



000
FTUS42 KGSP 180247 AAA
TAFCLT
TAF AMD
KCLT 180247Z 1803/1824 26003KT P6SM VCSH FEW015 BKN035
     FM180400 26003KT P6SM -SHRA OVC015
     FM180600 00000KT 5SM BR BKN008
     FM181100 01003KT 5SM BR BKN015
     FM181300 04003KT P6SM BKN015
     FM181800 07005KT P6SM BKN025=



000
FTUS42 KGSP 180247 AAA
TAFCLT
TAF AMD
KCLT 180247Z 1803/1824 26003KT P6SM VCSH FEW015 BKN035
     FM180400 26003KT P6SM -SHRA OVC015
     FM180600 00000KT 5SM BR BKN008
     FM181100 01003KT 5SM BR BKN015
     FM181300 04003KT P6SM BKN015
     FM181800 07005KT P6SM BKN025=



000
FTUS42 KGSP 180219 AAA
TAFGSP
TAF AMD
KGSP 180219Z 1802/1824 19004KT 5SM -SHRA BR OVC003
     FM180600 00000KT 4SM BR VCSH BKN005
     FM181300 03002KT 6SM BR BKN008
     FM181500 04005KT P6SM BKN025
     FM181900 07005KT P6SM BKN040=



000
FTUS42 KGSP 180219 AAA
TAFGSP
TAF AMD
KGSP 180219Z 1802/1824 19004KT 5SM -SHRA BR OVC003
     FM180600 00000KT 4SM BR VCSH BKN005
     FM181300 03002KT 6SM BR BKN008
     FM181500 04005KT P6SM BKN025
     FM181900 07005KT P6SM BKN040=



000
FTUS42 KGSP 172330
TAFGSP
TAF
KGSP 172330Z 1800/1824 19004KT P6SM -SHRA OVC015
     FM180600 00000KT 4SM BR VCSH BKN008
     FM181300 03002KT 6SM BR BKN008
     FM181500 04005KT P6SM BKN025
     FM181900 07005KT P6SM BKN040=



000
FTUS42 KGSP 172330
TAFAVL
TAF
KAVL 172330Z 1800/1824 20003KT P6SM -SHRA BKN050
     FM180600 32003KT 5SM BR BKN025
     FM181000 34003KT P6SM BKN035
     FM181900 17003KT P6SM BKN045=



000
FTUS42 KGSP 172330
TAFCLT
TAF
KCLT 172330Z 1800/1824 24003KT P6SM VCSH BKN035
     FM180200 23003KT P6SM -SHRA OVC015
     FM180600 00000KT 5SM BR BKN008
     FM181100 01003KT 5SM BR BKN015
     FM181300 04003KT P6SM BKN015
     FM181800 07005KT P6SM BKN025=



000
FTUS42 KGSP 172330
TAFCLT
TAF
KCLT 172330Z 1800/1824 24003KT P6SM VCSH BKN035
     FM180200 23003KT P6SM -SHRA OVC015
     FM180600 00000KT 5SM BR BKN008
     FM181100 01003KT 5SM BR BKN015
     FM181300 04003KT P6SM BKN015
     FM181800 07005KT P6SM BKN025=



000
FTUS42 KGSP 172330
TAFAVL
TAF
KAVL 172330Z 1800/1824 20003KT P6SM -SHRA BKN050
     FM180600 32003KT 5SM BR BKN025
     FM181000 34003KT P6SM BKN035
     FM181900 17003KT P6SM BKN045=



000
FTUS42 KGSP 172330
TAFAVL
TAF
KAVL 172330Z 1800/1824 20003KT P6SM -SHRA BKN050
     FM180600 32003KT 5SM BR BKN025
     FM181000 34003KT P6SM BKN035
     FM181900 17003KT P6SM BKN045=



000
FTUS42 KGSP 172330
TAFCLT
TAF
KCLT 172330Z 1800/1824 24003KT P6SM VCSH BKN035
     FM180200 23003KT P6SM -SHRA OVC015
     FM180600 00000KT 5SM BR BKN008
     FM181100 01003KT 5SM BR BKN015
     FM181300 04003KT P6SM BKN015
     FM181800 07005KT P6SM BKN025=



000
FTUS42 KGSP 172048 AAA
TAFCLT
TAF AMD
KCLT 172048Z 1721/1818 20005KT P6SM VCSH BKN015
     FM172300 21003KT P6SM SHRA BKN015
     FM180500 00000KT P6SM BKN008
     FM181000 03002KT 5SM BR BKN015
     FM181300 04003KT P6SM BKN035=



000
FTUS42 KGSP 172048 AAA
TAFCLT
TAF AMD
KCLT 172048Z 1721/1818 20005KT P6SM VCSH BKN015
     FM172300 21003KT P6SM SHRA BKN015
     FM180500 00000KT P6SM BKN008
     FM181000 03002KT 5SM BR BKN015
     FM181300 04003KT P6SM BKN035=



000
FTUS42 KGSP 171735 CCA
TAFCLT
TAF COR
KCLT 171735Z 1718/1818 18004KT P6SM OVC008
     FM172000 20005KT P6SM VCSH BKN015
      TEMPO 1723/1803 VRB10G20KT 4SM TSRA BKN015CB
     FM180500 00000KT P6SM BKN008
     FM181000 03002KT 5SM BR BKN015
     FM181300 04003KT P6SM BKN035=



000
FTUS42 KGSP 171735 CCA
TAFCLT
TAF COR
KCLT 171735Z 1718/1818 18004KT P6SM OVC008
     FM172000 20005KT P6SM VCSH BKN015
      TEMPO 1723/1803 VRB10G20KT 4SM TSRA BKN015CB
     FM180500 00000KT P6SM BKN008
     FM181000 03002KT 5SM BR BKN015
     FM181300 04003KT P6SM BKN035=



000
FTUS42 KGSP 171735 CCA
TAFCLT
TAF COR
KCLT 171735Z 1718/1818 18004KT P6SM OVC008
     FM172000 20005KT P6SM VCSH BKN015
      TEMPO 1723/1803 VRB10G20KT 4SM TSRA BKN015CB
     FM180500 00000KT P6SM BKN008
     FM181000 03002KT 5SM BR BKN015
     FM181300 04003KT P6SM BKN035=



000
FTUS42 KGSP 171735 CCA
TAFCLT
TAF COR
KCLT 171735Z 1718/1818 18004KT P6SM OVC008
     FM172000 20005KT P6SM VCSH BKN015
      TEMPO 1723/1803 VRB10G20KT 4SM TSRA BKN015CB
     FM180500 00000KT P6SM BKN008
     FM181000 03002KT 5SM BR BKN015
     FM181300 04003KT P6SM BKN035=



000
FTUS42 KGSP 171731
TAFCLT
TAF
KCLT 171731Z 1718/1818 18004KT P6SM OVC008
     FM172000 20005KT P6SM VCSH BKN015
      TEMPO 1723/1803 4SM -TSRA BKN015CB
     FM180500 00000KT P6SM BKN008
     FM181000 03002KT 5SM BR BKN015
     FM181300 04003KT P6SM BKN035=



000
FTUS42 KGSP 171731
TAFGSP
TAF
KGSP 171731Z 1718/1818 17003KT P6SM BKN015
     FM172000 20005KT P6SM VCTS OVC015CB
      TEMPO 1722/1802 4SM -TSRA BKN008CB
     FM180200 00000KT P6SM BKN008
     FM181300 04005KT P6SM BKN025
     FM181600 05005KT P6SM BKN040=



000
FTUS42 KGSP 171731
TAFAVL
TAF
KAVL 171731Z 1718/1818 00000KT P6SM BKN120
     FM172100 17004KT P6SM -SHRA BKN050
      TEMPO 1722/1802 4SM -TSRA BKN030CB
     FM180200 00000KT P6SM BKN045
     FM180600 00000KT 5SM BR BKN020
     FM181000 34003KT P6SM BKN040
     FM181500 34003KT P6SM BKN080=



000
FTUS42 KGSP 171731
TAFCLT
TAF
KCLT 171731Z 1718/1818 18004KT P6SM OVC008
     FM172000 20005KT P6SM VCSH BKN015
      TEMPO 1723/1803 4SM -TSRA BKN015CB
     FM180500 00000KT P6SM BKN008
     FM181000 03002KT 5SM BR BKN015
     FM181300 04003KT P6SM BKN035=



000
FTUS42 KGSP 171731
TAFAVL
TAF
KAVL 171731Z 1718/1818 00000KT P6SM BKN120
     FM172100 17004KT P6SM -SHRA BKN050
      TEMPO 1722/1802 4SM -TSRA BKN030CB
     FM180200 00000KT P6SM BKN045
     FM180600 00000KT 5SM BR BKN020
     FM181000 34003KT P6SM BKN040
     FM181500 34003KT P6SM BKN080=



000
FTUS42 KGSP 171731
TAFAVL
TAF
KAVL 171731Z 1718/1818 00000KT P6SM BKN120
     FM172100 17004KT P6SM -SHRA BKN050
      TEMPO 1722/1802 4SM -TSRA BKN030CB
     FM180200 00000KT P6SM BKN045
     FM180600 00000KT 5SM BR BKN020
     FM181000 34003KT P6SM BKN040
     FM181500 34003KT P6SM BKN080=



000
FTUS42 KGSP 171731
TAFCLT
TAF
KCLT 171731Z 1718/1818 18004KT P6SM OVC008
     FM172000 20005KT P6SM VCSH BKN015
      TEMPO 1723/1803 4SM -TSRA BKN015CB
     FM180500 00000KT P6SM BKN008
     FM181000 03002KT 5SM BR BKN015
     FM181300 04003KT P6SM BKN035=



000
FTUS42 KGSP 171731
TAFGSP
TAF
KGSP 171731Z 1718/1818 17003KT P6SM BKN015
     FM172000 20005KT P6SM VCTS OVC015CB
      TEMPO 1722/1802 4SM -TSRA BKN008CB
     FM180200 00000KT P6SM BKN008
     FM181300 04005KT P6SM BKN025
     FM181600 05005KT P6SM BKN040=



000
FTUS42 KGSP 171731
TAFAVL
TAF
KAVL 171731Z 1718/1818 00000KT P6SM BKN120
     FM172100 17004KT P6SM -SHRA BKN050
      TEMPO 1722/1802 4SM -TSRA BKN030CB
     FM180200 00000KT P6SM BKN045
     FM180600 00000KT 5SM BR BKN020
     FM181000 34003KT P6SM BKN040
     FM181500 34003KT P6SM BKN080=



000
FTUS42 KGSP 171731
TAFCLT
TAF
KCLT 171731Z 1718/1818 18004KT P6SM OVC008
     FM172000 20005KT P6SM VCSH BKN015
      TEMPO 1723/1803 4SM -TSRA BKN015CB
     FM180500 00000KT P6SM BKN008
     FM181000 03002KT 5SM BR BKN015
     FM181300 04003KT P6SM BKN035=



000
FTUS42 KGSP 171506 AAA
TAFAVL
TAF AMD
KAVL 171506Z 1715/1812 34005KT P6SM OVC018
      TEMPO 1715/1717 FEW080
     FM171700 32006KT P6SM VCSH BKN025
     FM172000 32006KT P6SM VCSH BKN035
     FM172300 31005KT P6SM BKN040
     FM180600 34003KT 4SM BR BKN003=



000
FTUS42 KGSP 171506 AAA
TAFAVL
TAF AMD
KAVL 171506Z 1715/1812 34005KT P6SM OVC018
      TEMPO 1715/1717 FEW080
     FM171700 32006KT P6SM VCSH BKN025
     FM172000 32006KT P6SM VCSH BKN035
     FM172300 31005KT P6SM BKN040
     FM180600 34003KT 4SM BR BKN003=



000
FTUS42 KGSP 171503 AAB
TAFGSP
TAF AMD
KGSP 171503Z 1715/1812 12003KT P6SM OVC015
     FM171700 15003KT P6SM OVC025
     FM171900 18005KT P6SM VCSH BKN035
     FM180100 00000KT P6SM BKN035
     FM180800 00000KT 4SM BR SCT060=



000
FTUS42 KGSP 171503 AAB
TAFGSP
TAF AMD
KGSP 171503Z 1715/1812 12003KT P6SM OVC015
     FM171700 15003KT P6SM OVC025
     FM171900 18005KT P6SM VCSH BKN035
     FM180100 00000KT P6SM BKN035
     FM180800 00000KT 4SM BR SCT060=



000
FTUS42 KGSP 171500 AAA
TAFCLT
TAF AMD
KCLT 171500Z 1715/1812 05004KT P6SM OVC008
     FM171700 11003KT P6SM OVC015
     FM172000 22004KT P6SM VCSH BKN045
     FM180100 00000KT P6SM BKN080
     FM180600 00000KT 4SM BR BKN050=



000
FTUS42 KGSP 171500 AAA
TAFCLT
TAF AMD
KCLT 171500Z 1715/1812 05004KT P6SM OVC008
     FM171700 11003KT P6SM OVC015
     FM172000 22004KT P6SM VCSH BKN045
     FM180100 00000KT P6SM BKN080
     FM180600 00000KT 4SM BR BKN050=



000
FTUS42 KGSP 171133
TAFGSP
TAF
KGSP 171133Z 1712/1812 02004KT P6SM SCT003 OVC015
      TEMPO 1712/1716 -DZ BKN003 OVC015
     FM171600 03003KT P6SM OVC015
     FM171800 06003KT P6SM OVC025
     FM172000 18005KT P6SM VCSH BKN035
     FM180100 00000KT P6SM BKN035
     FM180800 00000KT 4SM BR SCT060=



000
FTUS42 KGSP 171133
TAFAVL
TAF
KAVL 171133Z 1712/1812 32003KT P6SM SCT003 OVC018
      TEMPO 1712/1716 BKN003 OVC018
     FM171600 34005KT P6SM OVC018
     FM171800 32006KT P6SM BKN025
     FM172000 22006KT P6SM VCSH BKN035
     FM172300 31005KT P6SM BKN040
     FM180600 34003KT 4SM BR BKN003=



000
FTUS42 KGSP 171133
TAFCLT
TAF
KCLT 171133Z 1712/1812 36004KT 4SM BR OVC002
      TEMPO 1712/1714 2SM -DZ BR
     FM171600 00000KT P6SM OVC015
     FM171800 11003KT P6SM BKN025
     FM172000 22004KT P6SM BKN045
     FM180100 00000KT P6SM BKN080
     FM180600 00000KT 4SM BR BKN050=



000
FTUS42 KGSP 171133
TAFCLT
TAF
KCLT 171133Z 1712/1812 36004KT 4SM BR OVC002
      TEMPO 1712/1714 2SM -DZ BR
     FM171600 00000KT P6SM OVC015
     FM171800 11003KT P6SM BKN025
     FM172000 22004KT P6SM BKN045
     FM180100 00000KT P6SM BKN080
     FM180600 00000KT 4SM BR BKN050=



000
FTUS42 KGSP 171133
TAFAVL
TAF
KAVL 171133Z 1712/1812 32003KT P6SM SCT003 OVC018
      TEMPO 1712/1716 BKN003 OVC018
     FM171600 34005KT P6SM OVC018
     FM171800 32006KT P6SM BKN025
     FM172000 22006KT P6SM VCSH BKN035
     FM172300 31005KT P6SM BKN040
     FM180600 34003KT 4SM BR BKN003=



000
FTUS42 KGSP 170904 AAA
TAFAVL
TAF AMD
KAVL 170904Z 1709/1806 00000KT P6SM OVC007
      TEMPO 1709/1713 3SM -RADZ BR OVC004
     FM171600 34005KT P6SM VCSH OVC015
     FM171800 32006KT P6SM VCSH BKN025
     FM172000 19006KT P6SM VCSH BKN045
     FM180000 35004KT P6SM BKN040=



000
FTUS42 KGSP 170904 AAA
TAFCLT
TAF AMD
KCLT 170904Z 1709/1806 01004KT 5SM -RADZ BR OVC004
      TEMPO 1709/1713 1SM -RADZ BR OVC001
     FM171400 00000KT P6SM OVC005
     FM171600 00000KT P6SM OVC015
     FM171800 16003KT P6SM BKN025
     FM172000 22003KT P6SM BKN040
     FM180100 00000KT P6SM BKN050=



000
FTUS42 KGSP 170904 AAA
TAFAVL
TAF AMD
KAVL 170904Z 1709/1806 00000KT P6SM OVC007
      TEMPO 1709/1713 3SM -RADZ BR OVC004
     FM171600 34005KT P6SM VCSH OVC015
     FM171800 32006KT P6SM VCSH BKN025
     FM172000 19006KT P6SM VCSH BKN045
     FM180000 35004KT P6SM BKN040=



000
FTUS42 KGSP 170904 AAA
TAFGSP
TAF AMD
KGSP 170904Z 1709/1806 02006KT P6SM SCT004 OVC022
      TEMPO 1709/1713 3SM -RADZ BR OVC004
     FM171400 00000KT P6SM OVC005
     FM171600 04003KT P6SM OVC015
     FM171800 06003KT P6SM OVC025
     FM172000 16004KT P6SM BKN035
     FM180100 00000KT P6SM BKN045=



000
FTUS42 KGSP 170904 AAA
TAFAVL
TAF AMD
KAVL 170904Z 1709/1806 00000KT P6SM OVC007
      TEMPO 1709/1713 3SM -RADZ BR OVC004
     FM171600 34005KT P6SM VCSH OVC015
     FM171800 32006KT P6SM VCSH BKN025
     FM172000 19006KT P6SM VCSH BKN045
     FM180000 35004KT P6SM BKN040=



000
FTUS42 KGSP 170904 AAA
TAFCLT
TAF AMD
KCLT 170904Z 1709/1806 01004KT 5SM -RADZ BR OVC004
      TEMPO 1709/1713 1SM -RADZ BR OVC001
     FM171400 00000KT P6SM OVC005
     FM171600 00000KT P6SM OVC015
     FM171800 16003KT P6SM BKN025
     FM172000 22003KT P6SM BKN040
     FM180100 00000KT P6SM BKN050=



000
FTUS42 KGSP 170904 AAA
TAFCLT
TAF AMD
KCLT 170904Z 1709/1806 01004KT 5SM -RADZ BR OVC004
      TEMPO 1709/1713 1SM -RADZ BR OVC001
     FM171400 00000KT P6SM OVC005
     FM171600 00000KT P6SM OVC015
     FM171800 16003KT P6SM BKN025
     FM172000 22003KT P6SM BKN040
     FM180100 00000KT P6SM BKN050=



000
FTUS42 KGSP 170904 AAA
TAFGSP
TAF AMD
KGSP 170904Z 1709/1806 02006KT P6SM SCT004 OVC022
      TEMPO 1709/1713 3SM -RADZ BR OVC004
     FM171400 00000KT P6SM OVC005
     FM171600 04003KT P6SM OVC015
     FM171800 06003KT P6SM OVC025
     FM172000 16004KT P6SM BKN035
     FM180100 00000KT P6SM BKN045=



000
FTUS42 KGSP 170904 AAA
TAFCLT
TAF AMD
KCLT 170904Z 1709/1806 01004KT 5SM -RADZ BR OVC004
      TEMPO 1709/1713 1SM -RADZ BR OVC001
     FM171400 00000KT P6SM OVC005
     FM171600 00000KT P6SM OVC015
     FM171800 16003KT P6SM BKN025
     FM172000 22003KT P6SM BKN040
     FM180100 00000KT P6SM BKN050=



000
FTUS42 KGSP 170904 AAA
TAFAVL
TAF AMD
KAVL 170904Z 1709/1806 00000KT P6SM OVC007
      TEMPO 1709/1713 3SM -RADZ BR OVC004
     FM171600 34005KT P6SM VCSH OVC015
     FM171800 32006KT P6SM VCSH BKN025
     FM172000 19006KT P6SM VCSH BKN045
     FM180000 35004KT P6SM BKN040=



000
FTUS42 KGSP 170559 CCA
TAFAVL
TAF COR
KAVL 170559Z 1706/1806 00000KT P6SM -RADZ OVC010
      TEMPO 1706/1710 3SM -RADZ BR OVC007
     FM171000 00000KT 3SM -RADZ BR OVC007
     FM171600 34005KT P6SM VCSH OVC015
     FM171800 32006KT P6SM VCSH BKN025
     FM172000 19006KT P6SM VCSH BKN045
     FM180000 35004KT P6SM BKN040=



000
FTUS42 KGSP 170559 CCA
TAFAVL
TAF COR
KAVL 170559Z 1706/1806 00000KT P6SM -RADZ OVC010
      TEMPO 1706/1710 3SM -RADZ BR OVC007
     FM171000 00000KT 3SM -RADZ BR OVC007
     FM171600 34005KT P6SM VCSH OVC015
     FM171800 32006KT P6SM VCSH BKN025
     FM172000 19006KT P6SM VCSH BKN045
     FM180000 35004KT P6SM BKN040=



000
FTUS42 KGSP 170559 CCA
TAFAVL
TAF COR
KAVL 170559Z 1706/1806 00000KT P6SM -RADZ OVC010
      TEMPO 1706/1710 3SM -RADZ BR OVC007
     FM171000 00000KT 3SM -RADZ BR OVC007
     FM171600 34005KT P6SM VCSH OVC015
     FM171800 32006KT P6SM VCSH BKN025
     FM172000 19006KT P6SM VCSH BKN045
     FM180000 35004KT P6SM BKN040=



000
FTUS42 KGSP 170559 CCA
TAFAVL
TAF COR
KAVL 170559Z 1706/1806 00000KT P6SM -RADZ OVC010
      TEMPO 1706/1710 3SM -RADZ BR OVC007
     FM171000 00000KT 3SM -RADZ BR OVC007
     FM171600 34005KT P6SM VCSH OVC015
     FM171800 32006KT P6SM VCSH BKN025
     FM172000 19006KT P6SM VCSH BKN045
     FM180000 35004KT P6SM BKN040=



000
FTUS42 KGSP 170557 CCA
TAFGSP
TAF COR
KGSP 170557Z 1706/1806 02006KT 3SM -RADZ BR OVC004
      TEMPO 1709/1713 1SM -RADZ BR OVC001
     FM171400 00000KT P6SM OVC008
     FM171600 04003KT P6SM OVC015
     FM171800 06003KT P6SM OVC025
     FM172000 16004KT P6SM BKN035
     FM180100 00000KT P6SM BKN045=



000
FTUS42 KGSP 170557 CCA
TAFGSP
TAF COR
KGSP 170557Z 1706/1806 02006KT 3SM -RADZ BR OVC004
      TEMPO 1709/1713 1SM -RADZ BR OVC001
     FM171400 00000KT P6SM OVC008
     FM171600 04003KT P6SM OVC015
     FM171800 06003KT P6SM OVC025
     FM172000 16004KT P6SM BKN035
     FM180100 00000KT P6SM BKN045=



000
FTUS42 KGSP 170536
TAFGSP
TAF
KGSP 170536Z 1706/1806 02006KT 2SM -RADZ BR OVC004
      TEMPO 1709/1713 1SM -RADZ BR OVC001
     FM171400 00000KT P6SM OVC008
     FM171600 04003KT P6SM OVC015
     FM171800 06003KT P6SM OVC025
     FM172000 16004KT P6SM BKN035
     FM180100 00000KT P6SM BKN045=



000
FTUS42 KGSP 170536
TAFCLT
TAF
KCLT 170536Z 1706/1806 01004KT 5SM -RADZ BR OVC004
      TEMPO 1709/1713 1SM -RADZ BR OVC001
     FM171400 00000KT P6SM OVC008
     FM171600 00000KT P6SM OVC015
     FM171800 16003KT P6SM BKN025
     FM172000 22003KT P6SM BKN040
     FM180100 00000KT P6SM BKN050=



000
FTUS42 KGSP 170536
TAFGSP
TAF
KGSP 170536Z 1706/1806 02006KT 2SM -RADZ BR OVC004
      TEMPO 1709/1713 1SM -RADZ BR OVC001
     FM171400 00000KT P6SM OVC008
     FM171600 04003KT P6SM OVC015
     FM171800 06003KT P6SM OVC025
     FM172000 16004KT P6SM BKN035
     FM180100 00000KT P6SM BKN045=



000
FTUS42 KGSP 170536
TAFCLT
TAF
KCLT 170536Z 1706/1806 01004KT 5SM -RADZ BR OVC004
      TEMPO 1709/1713 1SM -RADZ BR OVC001
     FM171400 00000KT P6SM OVC008
     FM171600 00000KT P6SM OVC015
     FM171800 16003KT P6SM BKN025
     FM172000 22003KT P6SM BKN040
     FM180100 00000KT P6SM BKN050=



000
FTUS42 KGSP 170536
TAFCLT
TAF
KCLT 170536Z 1706/1806 01004KT 5SM -RADZ BR OVC004
      TEMPO 1709/1713 1SM -RADZ BR OVC001
     FM171400 00000KT P6SM OVC008
     FM171600 00000KT P6SM OVC015
     FM171800 16003KT P6SM BKN025
     FM172000 22003KT P6SM BKN040
     FM180100 00000KT P6SM BKN050=



000
FTUS42 KGSP 170536
TAFAVL
TAF
KAVL 170536Z 1706/1806 00000KT 4SM -RADZ BR OVC007
      TEMPO 1709/1713 1SM -RADZ BR OVC004
     FM171600 34005KT P6SM VCSH OVC015
     FM171800 32006KT P6SM VCSH BKN025
     FM172000 19006KT P6SM VCSH BKN045
     FM180000 35004KT P6SM BKN040=



000
FTUS42 KGSP 170536
TAFAVL
TAF
KAVL 170536Z 1706/1806 00000KT 4SM -RADZ BR OVC007
      TEMPO 1709/1713 1SM -RADZ BR OVC004
     FM171600 34005KT P6SM VCSH OVC015
     FM171800 32006KT P6SM VCSH BKN025
     FM172000 19006KT P6SM VCSH BKN045
     FM180000 35004KT P6SM BKN040=



000
FTUS42 KGSP 170536
TAFAVL
TAF
KAVL 170536Z 1706/1806 00000KT 4SM -RADZ BR OVC007
      TEMPO 1709/1713 1SM -RADZ BR OVC004
     FM171600 34005KT P6SM VCSH OVC015
     FM171800 32006KT P6SM VCSH BKN025
     FM172000 19006KT P6SM VCSH BKN045
     FM180000 35004KT P6SM BKN040=



000
FTUS42 KGSP 170406 AAB
TAFAVL
TAF AMD
KAVL 170406Z 1704/1724 18004KT P6SM OVC007
     FM170700 00000KT 1SM BR OVC006
     FM171300 00000KT 3SM BR OVC010
     FM171500 33003KT P6SM VCSH OVC015
     FM171800 33004KT P6SM VCSH BKN025
     FM172200 33004KT P6SM VCSH BKN035=



000
FTUS42 KGSP 170406 AAB
TAFGSP
TAF AMD
KGSP 170406Z 1704/1724 03006KT P6SM BKN004 OVC022
     FM170600 03004KT 2SM BR OVC003
     FM171500 VRB03KT P6SM OVC015
     FM172000 20004KT P6SM BKN035=



000
FTUS42 KGSP 170406 AAB
TAFAVL
TAF AMD
KAVL 170406Z 1704/1724 18004KT P6SM OVC007
     FM170700 00000KT 1SM BR OVC006
     FM171300 00000KT 3SM BR OVC010
     FM171500 33003KT P6SM VCSH OVC015
     FM171800 33004KT P6SM VCSH BKN025
     FM172200 33004KT P6SM VCSH BKN035=



000
FTUS42 KGSP 170241 AAA
TAFCLT
TAF AMD
KCLT 170241Z 1703/1724 04004KT 3SM BR OVC003
     FM170600 36003KT 1SM BR OVC002
      TEMPO 1709/1713 1/2SM FG OVC001
     FM171300 02003KT 2SM BR OVC005
     FM171600 00000KT P6SM OVC015
     FM171900 22003KT P6SM BKN035=



000
FTUS42 KGSP 170241 AAA
TAFCLT
TAF AMD
KCLT 170241Z 1703/1724 04004KT 3SM BR OVC003
     FM170600 36003KT 1SM BR OVC002
      TEMPO 1709/1713 1/2SM FG OVC001
     FM171300 02003KT 2SM BR OVC005
     FM171600 00000KT P6SM OVC015
     FM171900 22003KT P6SM BKN035=



000
FTUS42 KGSP 170045 AAA
TAFAVL
TAF AMD
KAVL 170045Z 1701/1724 16006KT 6SM -RADZ BR OVC009
     FM170500 00000KT 3SM BR OVC009
     FM170700 00000KT 1SM BR OVC006
     FM171300 00000KT 3SM BR OVC010
     FM171500 33003KT P6SM VCSH OVC015
     FM171800 33004KT P6SM VCSH BKN025
     FM172200 33004KT P6SM VCSH BKN035=



000
FTUS42 KGSP 170045 AAA
TAFAVL
TAF AMD
KAVL 170045Z 1701/1724 16006KT 6SM -RADZ BR OVC009
     FM170500 00000KT 3SM BR OVC009
     FM170700 00000KT 1SM BR OVC006
     FM171300 00000KT 3SM BR OVC010
     FM171500 33003KT P6SM VCSH OVC015
     FM171800 33004KT P6SM VCSH BKN025
     FM172200 33004KT P6SM VCSH BKN035=



000
FTUS42 KGSP 170045 AAA
TAFAVL
TAF AMD
KAVL 170045Z 1701/1724 16006KT 6SM -RADZ BR OVC009
     FM170500 00000KT 3SM BR OVC009
     FM170700 00000KT 1SM BR OVC006
     FM171300 00000KT 3SM BR OVC010
     FM171500 33003KT P6SM VCSH OVC015
     FM171800 33004KT P6SM VCSH BKN025
     FM172200 33004KT P6SM VCSH BKN035=



000
FTUS42 KGSP 170045 AAA
TAFAVL
TAF AMD
KAVL 170045Z 1701/1724 16006KT 6SM -RADZ BR OVC009
     FM170500 00000KT 3SM BR OVC009
     FM170700 00000KT 1SM BR OVC006
     FM171300 00000KT 3SM BR OVC010
     FM171500 33003KT P6SM VCSH OVC015
     FM171800 33004KT P6SM VCSH BKN025
     FM172200 33004KT P6SM VCSH BKN035=



000
FTUS42 KGSP 162337
TAFAVL
TAF
KAVL 162337Z 1700/1724 16006KT 6SM -RADZ BR OVC025
     FM170500 00000KT 3SM BR OVC009
     FM170700 00000KT 1SM BR OVC006
     FM171300 00000KT 3SM BR OVC010
     FM171500 33003KT P6SM VCSH OVC015
     FM171800 33004KT P6SM VCSH BKN025
     FM172200 33004KT P6SM VCSH BKN035=



000
FTUS42 KGSP 162337
TAFCLT
TAF
KCLT 162337Z 1700/1724 01008KT 5SM -RADZ BR OVC005
     FM170200 04004KT 3SM BR OVC002
     FM170900 36003KT 1SM BR OVC002
      TEMPO 1709/1713 1/2SM FG OVC001
     FM171300 02003KT 2SM BR OVC005
     FM171600 00000KT P6SM OVC015
     FM171900 22003KT P6SM BKN035=



000
FTUS42 KGSP 162337
TAFGSP
TAF
KGSP 162337Z 1700/1724 04006KT 6SM -RADZ BR OVC010
     FM170400 03005KT 3SM BR OVC006
     FM170600 03004KT 2SM BR OVC003
     FM171500 VRB03KT P6SM OVC015
     FM172000 20004KT P6SM BKN035=



000
FTUS42 KGSP 162337
TAFAVL
TAF
KAVL 162337Z 1700/1724 16006KT 6SM -RADZ BR OVC025
     FM170500 00000KT 3SM BR OVC009
     FM170700 00000KT 1SM BR OVC006
     FM171300 00000KT 3SM BR OVC010
     FM171500 33003KT P6SM VCSH OVC015
     FM171800 33004KT P6SM VCSH BKN025
     FM172200 33004KT P6SM VCSH BKN035=



000
FTUS42 KGSP 162337
TAFCLT
TAF
KCLT 162337Z 1700/1724 01008KT 5SM -RADZ BR OVC005
     FM170200 04004KT 3SM BR OVC002
     FM170900 36003KT 1SM BR OVC002
      TEMPO 1709/1713 1/2SM FG OVC001
     FM171300 02003KT 2SM BR OVC005
     FM171600 00000KT P6SM OVC015
     FM171900 22003KT P6SM BKN035=



000
FTUS42 KGSP 162337
TAFCLT
TAF
KCLT 162337Z 1700/1724 01008KT 5SM -RADZ BR OVC005
     FM170200 04004KT 3SM BR OVC002
     FM170900 36003KT 1SM BR OVC002
      TEMPO 1709/1713 1/2SM FG OVC001
     FM171300 02003KT 2SM BR OVC005
     FM171600 00000KT P6SM OVC015
     FM171900 22003KT P6SM BKN035=



000
FTUS42 KGSP 162337
TAFAVL
TAF
KAVL 162337Z 1700/1724 16006KT 6SM -RADZ BR OVC025
     FM170500 00000KT 3SM BR OVC009
     FM170700 00000KT 1SM BR OVC006
     FM171300 00000KT 3SM BR OVC010
     FM171500 33003KT P6SM VCSH OVC015
     FM171800 33004KT P6SM VCSH BKN025
     FM172200 33004KT P6SM VCSH BKN035=



000
FTUS42 KGSP 162337
TAFAVL
TAF
KAVL 162337Z 1700/1724 16006KT 6SM -RADZ BR OVC025
     FM170500 00000KT 3SM BR OVC009
     FM170700 00000KT 1SM BR OVC006
     FM171300 00000KT 3SM BR OVC010
     FM171500 33003KT P6SM VCSH OVC015
     FM171800 33004KT P6SM VCSH BKN025
     FM172200 33004KT P6SM VCSH BKN035=



000
FTUS42 KGSP 162337
TAFCLT
TAF
KCLT 162337Z 1700/1724 01008KT 5SM -RADZ BR OVC005
     FM170200 04004KT 3SM BR OVC002
     FM170900 36003KT 1SM BR OVC002
      TEMPO 1709/1713 1/2SM FG OVC001
     FM171300 02003KT 2SM BR OVC005
     FM171600 00000KT P6SM OVC015
     FM171900 22003KT P6SM BKN035=



000
FTUS42 KGSP 162337
TAFGSP
TAF
KGSP 162337Z 1700/1724 04006KT 6SM -RADZ BR OVC010
     FM170400 03005KT 3SM BR OVC006
     FM170600 03004KT 2SM BR OVC003
     FM171500 VRB03KT P6SM OVC015
     FM172000 20004KT P6SM BKN035=



000
FTUS42 KGSP 162054 AAA
TAFCLT
TAF AMD
KCLT 162054Z 1621/1718 01008KT 5SM -RADZ BR OVC007
     FM170200 05006KT 3SM BR OVC003
     FM171000 36003KT 3/4SM BR OVC003
      TEMPO 1710/1713 1/2SM FG OVC001
     FM171300 02003KT 2SM BR OVC003
     FM171500 VRB03KT P6SM OVC025
     FM171700 22004KT P6SM BKN040=



000
FTUS42 KGSP 162054 AAA
TAFCLT
TAF AMD
KCLT 162054Z 1621/1718 01008KT 5SM -RADZ BR OVC007
     FM170200 05006KT 3SM BR OVC003
     FM171000 36003KT 3/4SM BR OVC003
      TEMPO 1710/1713 1/2SM FG OVC001
     FM171300 02003KT 2SM BR OVC003
     FM171500 VRB03KT P6SM OVC025
     FM171700 22004KT P6SM BKN040=



000
FTUS42 KGSP 161737
TAFAVL
TAF
KAVL 161737Z 1618/1718 14005KT P6SM OVC012
     FM170000 13004KT 4SM -RADZ BR OVC008
     FM170300 00000KT 2SM BR OVC003
     FM171000 00000KT 1/2SM FG OVC003
     FM171300 00000KT 1 1/2SM BR OVC008
     FM171500 33003KT P6SM VCSH OVC025=



000
FTUS42 KGSP 161737
TAFCLT
TAF
KCLT 161737Z 1618/1718 01010G17KT 5SM -RADZ BR OVC007
     FM170200 05006KT 3SM BR OVC003
     FM171000 36003KT 3/4SM BR OVC003
      TEMPO 1710/1713 1/2SM FG OVC001
     FM171300 02003KT 2SM BR OVC003
     FM171500 VRB03KT P6SM OVC025
     FM171700 22004KT P6SM BKN040=



000
FTUS42 KGSP 161737
TAFCLT
TAF
KCLT 161737Z 1618/1718 01010G17KT 5SM -RADZ BR OVC007
     FM170200 05006KT 3SM BR OVC003
     FM171000 36003KT 3/4SM BR OVC003
      TEMPO 1710/1713 1/2SM FG OVC001
     FM171300 02003KT 2SM BR OVC003
     FM171500 VRB03KT P6SM OVC025
     FM171700 22004KT P6SM BKN040=



000
FTUS42 KGSP 161737
TAFAVL
TAF
KAVL 161737Z 1618/1718 14005KT P6SM OVC012
     FM170000 13004KT 4SM -RADZ BR OVC008
     FM170300 00000KT 2SM BR OVC003
     FM171000 00000KT 1/2SM FG OVC003
     FM171300 00000KT 1 1/2SM BR OVC008
     FM171500 33003KT P6SM VCSH OVC025=



000
FTUS42 KGSP 161737
TAFGSP
TAF
KGSP 161737Z 1618/1718 04009G15KT P6SM -DZ OVC020
     FM162300 04006KT 6SM -RADZ BR OVC010
     FM170500 03004KT 2SM BR OVC003
     FM171400 VRB03KT P6SM OVC015
     FM171700 22004KT P6SM BKN040=



000
FTUS42 KGSP 161655 AAB
TAFCLT
TAF AMD
KCLT 161655Z 1617/1712 02010G19KT 6SM -RADZ BR OVC007
     FM170100 04005KT 3SM -DZ BR OVC006=



000
FTUS42 KGSP 161655 AAB
TAFCLT
TAF AMD
KCLT 161655Z 1617/1712 02010G19KT 6SM -RADZ BR OVC007
     FM170100 04005KT 3SM -DZ BR OVC006=



000
FTUS42 KGSP 161510 AAA
TAFAVL
TAF AMD
KAVL 161510Z 1615/1712 26004KT P6SM BKN008 OVC012
      TEMPO 1615/1617 SCT007 OVC012
     FM161700 15006KT P6SM OVC012
     FM170100 15005KT 6SM -DZ BR OVC006
     FM170600 VRB03KT 2SM -DZ OVC004=



000
FTUS42 KGSP 161510 AAA
TAFAVL
TAF AMD
KAVL 161510Z 1615/1712 26004KT P6SM BKN008 OVC012
      TEMPO 1615/1617 SCT007 OVC012
     FM161700 15006KT P6SM OVC012
     FM170100 15005KT 6SM -DZ BR OVC006
     FM170600 VRB03KT 2SM -DZ OVC004=



000
FTUS42 KGSP 161506 AAB
TAFGSP
TAF AMD
KGSP 161506Z 1615/1712 04011G20KT P6SM OVC015
      TEMPO 1615/1617 5SM -DZ BR BKN008
     FM161700 04010KT 5SM -DZ BR SCT008 OVC015
     FM170200 03007KT 3SM -DZ BR OVC008
     FM171100 02004KT 2SM -DZ BR OVC006=



000
FTUS42 KGSP 161506 AAB
TAFGSP
TAF AMD
KGSP 161506Z 1615/1712 04011G20KT P6SM OVC015
      TEMPO 1615/1617 5SM -DZ BR BKN008
     FM161700 04010KT 5SM -DZ BR SCT008 OVC015
     FM170200 03007KT 3SM -DZ BR OVC008
     FM171100 02004KT 2SM -DZ BR OVC006=



000
FTUS42 KGSP 161503 AAA
TAFCLT
TAF AMD
KCLT 161503Z 1615/1712 01010KT 5SM -RADZ BR BKN008 OVC025
     FM161700 03011KT 5SM -RADZ BR BKN010 OVC025
     FM170100 04005KT 3SM -DZ BR OVC006=



000
FTUS42 KGSP 161503 AAA
TAFCLT
TAF AMD
KCLT 161503Z 1615/1712 01010KT 5SM -RADZ BR BKN008 OVC025
     FM161700 03011KT 5SM -RADZ BR BKN010 OVC025
     FM170100 04005KT 3SM -DZ BR OVC006=



000
FTUS42 KGSP 161130
TAFGSP
TAF
KGSP 161130Z 1612/1712 04011KT 4SM -DZ BR SCT006 OVC015
      TEMPO 1612/1616 2SM -DZ BR OVC006
     FM161600 04012KT P6SM -DZ OVC012
     FM170200 03007KT 3SM -DZ BR OVC008
     FM171100 02004KT 2SM -DZ BR OVC006=



000
FTUS42 KGSP 161130
TAFCLT
TAF
KCLT 161130Z 1612/1712 04010KT P6SM -DZ SCT008 OVC025
      TEMPO 1612/1616 5SM -DZ BR OVC008
     FM161600 03011KT P6SM -DZ OVC010
     FM170100 04005KT 3SM -DZ BR OVC006=



000
FTUS42 KGSP 161130
TAFAVL
TAF
KAVL 161130Z 1612/1712 15003KT P6SM OVC007
      TEMPO 1612/1616 6SM -DZ BR SCT007 OVC012
     FM161600 15006KT P6SM -DZ OVC012
     FM170100 15005KT 6SM -DZ BR OVC006
     FM170600 VRB03KT 2SM -DZ OVC004=



000
FTUS42 KGSP 161130
TAFCLT
TAF
KCLT 161130Z 1612/1712 04010KT P6SM -DZ SCT008 OVC025
      TEMPO 1612/1616 5SM -DZ BR OVC008
     FM161600 03011KT P6SM -DZ OVC010
     FM170100 04005KT 3SM -DZ BR OVC006=



000
FTUS42 KGSP 161130
TAFGSP
TAF
KGSP 161130Z 1612/1712 04011KT 4SM -DZ BR SCT006 OVC015
      TEMPO 1612/1616 2SM -DZ BR OVC006
     FM161600 04012KT P6SM -DZ OVC012
     FM170200 03007KT 3SM -DZ BR OVC008
     FM171100 02004KT 2SM -DZ BR OVC006=



000
FTUS42 KGSP 161130
TAFCLT
TAF
KCLT 161130Z 1612/1712 04010KT P6SM -DZ SCT008 OVC025
      TEMPO 1612/1616 5SM -DZ BR OVC008
     FM161600 03011KT P6SM -DZ OVC010
     FM170100 04005KT 3SM -DZ BR OVC006=



000
FTUS42 KGSP 161130
TAFAVL
TAF
KAVL 161130Z 1612/1712 15003KT P6SM OVC007
      TEMPO 1612/1616 6SM -DZ BR SCT007 OVC012
     FM161600 15006KT P6SM -DZ OVC012
     FM170100 15005KT 6SM -DZ BR OVC006
     FM170600 VRB03KT 2SM -DZ OVC004=



000
FTUS42 KGSP 161130
TAFCLT
TAF
KCLT 161130Z 1612/1712 04010KT P6SM -DZ SCT008 OVC025
      TEMPO 1612/1616 5SM -DZ BR OVC008
     FM161600 03011KT P6SM -DZ OVC010
     FM170100 04005KT 3SM -DZ BR OVC006=



000
FTUS42 KGSP 161130
TAFAVL
TAF
KAVL 161130Z 1612/1712 15003KT P6SM OVC007
      TEMPO 1612/1616 6SM -DZ BR SCT007 OVC012
     FM161600 15006KT P6SM -DZ OVC012
     FM170100 15005KT 6SM -DZ BR OVC006
     FM170600 VRB03KT 2SM -DZ OVC004=



000
FTUS42 KGSP 161130
TAFAVL
TAF
KAVL 161130Z 1612/1712 15003KT P6SM OVC007
      TEMPO 1612/1616 6SM -DZ BR SCT007 OVC012
     FM161600 15006KT P6SM -DZ OVC012
     FM170100 15005KT 6SM -DZ BR OVC006
     FM170600 VRB03KT 2SM -DZ OVC004=



000
FTUS42 KGSP 161002 AAB
TAFAVL
TAF AMD
KAVL 161002Z 1610/1706 16007KT 6SM -DZ BR OVC010
     FM170200 17003KT 3SM -DZ BR OVC007=



000
FTUS42 KGSP 161002 AAB
TAFAVL
TAF AMD
KAVL 161002Z 1610/1706 16007KT 6SM -DZ BR OVC010
     FM170200 17003KT 3SM -DZ BR OVC007=



000
FTUS42 KGSP 161002 AAC
TAFGSP
TAF AMD
KGSP 161002Z 1610/1706 04010KT 2SM -DZ BR OVC005
     FM161400 04012G18KT 6SM -DZ BR OVC010
     FM162000 04008KT P6SM -DZ OVC012
     FM170100 03007KT 5SM -DZ BR OVC008=



000
FTUS42 KGSP 161002 AAC
TAFGSP
TAF AMD
KGSP 161002Z 1610/1706 04010KT 2SM -DZ BR OVC005
     FM161400 04012G18KT 6SM -DZ BR OVC010
     FM162000 04008KT P6SM -DZ OVC012
     FM170100 03007KT 5SM -DZ BR OVC008=



000
FTUS42 KGSP 161002 AAB
TAFAVL
TAF AMD
KAVL 161002Z 1610/1706 16007KT 6SM -DZ BR OVC010
     FM170200 17003KT 3SM -DZ BR OVC007=



000
FTUS42 KGSP 161002 AAB
TAFAVL
TAF AMD
KAVL 161002Z 1610/1706 16007KT 6SM -DZ BR OVC010
     FM170200 17003KT 3SM -DZ BR OVC007=



000
FTUS42 KGSP 160854 AAC
TAFGSP
TAF AMD
KGSP 160854Z 1609/1706 04010G17KT 4SM -DZ BR OVC006
     FM161400 04012G18KT P6SM -DZ OVC010
     FM162000 04008KT P6SM -DZ OVC012
     FM170100 03007KT 5SM -DZ BR OVC008=



000
FTUS42 KGSP 160853 AAB
TAFCLT
TAF AMD
KCLT 160853Z 1609/1706 05010KT 4SM -RADZ OVC007
     FM161400 05010G16KT P6SM -DZ OVC010
     FM161900 04008KT P6SM -DZ OVC012
     FM170200 04005KT 5SM -DZ BR OVC007=



000
FTUS42 KGSP 160853 AAB
TAFCLT
TAF AMD
KCLT 160853Z 1609/1706 05010KT 4SM -RADZ OVC007
     FM161400 05010G16KT P6SM -DZ OVC010
     FM161900 04008KT P6SM -DZ OVC012
     FM170200 04005KT 5SM -DZ BR OVC007=



000
FTUS42 KGSP 160703 AAA
TAFCLT
TAF AMD
KCLT 160703Z 1607/1706 05009KT 6SM -RADZ SCT008 OVC020
      TEMPO 1607/1611 4SM -DZ BR OVC008
     FM161300 05010G16KT P6SM -DZ OVC012
     FM161900 04008KT P6SM -DZ OVC010
     FM170200 04005KT 5SM -DZ BR OVC007=



000
FTUS42 KGSP 160703 AAA
TAFCLT
TAF AMD
KCLT 160703Z 1607/1706 05009KT 6SM -RADZ SCT008 OVC020
      TEMPO 1607/1611 4SM -DZ BR OVC008
     FM161300 05010G16KT P6SM -DZ OVC012
     FM161900 04008KT P6SM -DZ OVC010
     FM170200 04005KT 5SM -DZ BR OVC007=



000
FTUS42 KGSP 160703 AAA
TAFCLT
TAF AMD
KCLT 160703Z 1607/1706 05009KT 6SM -RADZ SCT008 OVC020
      TEMPO 1607/1611 4SM -DZ BR OVC008
     FM161300 05010G16KT P6SM -DZ OVC012
     FM161900 04008KT P6SM -DZ OVC010
     FM170200 04005KT 5SM -DZ BR OVC007=



000
FTUS42 KGSP 160700 AAA
TAFAVL
TAF AMD
KAVL 160700Z 1607/1706 VRB04KT 6SM -DZ BR OVC003
     FM161400 16007KT P6SM -DZ OVC012
     FM170200 17003KT 3SM -DZ BR OVC007=



000
FTUS42 KGSP 160700 AAA
TAFAVL
TAF AMD
KAVL 160700Z 1607/1706 VRB04KT 6SM -DZ BR OVC003
     FM161400 16007KT P6SM -DZ OVC012
     FM170200 17003KT 3SM -DZ BR OVC007=



000
FTUS42 KGSP 160700 AAA
TAFGSP
TAF AMD
KGSP 160700Z 1607/1706 04009KT 6SM -DZ BR OVC007
     FM161400 04012G18KT P6SM -DZ OVC010
     FM162000 04008KT P6SM -DZ OVC012
     FM170100 03007KT 5SM -DZ BR OVC008=



000
FTUS42 KGSP 160700 AAA
TAFGSP
TAF AMD
KGSP 160700Z 1607/1706 04009KT 6SM -DZ BR OVC007
     FM161400 04012G18KT P6SM -DZ OVC010
     FM162000 04008KT P6SM -DZ OVC012
     FM170100 03007KT 5SM -DZ BR OVC008=



000
FTUS42 KGSP 160700 AAA
TAFAVL
TAF AMD
KAVL 160700Z 1607/1706 VRB04KT 6SM -DZ BR OVC003
     FM161400 16007KT P6SM -DZ OVC012
     FM170200 17003KT 3SM -DZ BR OVC007=



000
FTUS42 KGSP 160700 AAA
TAFAVL
TAF AMD
KAVL 160700Z 1607/1706 VRB04KT 6SM -DZ BR OVC003
     FM161400 16007KT P6SM -DZ OVC012
     FM170200 17003KT 3SM -DZ BR OVC007=



000
FTUS42 KGSP 160538
TAFGSP
TAF
KGSP 160538Z 1606/1706 04009KT 4SM -RADZ BR OVC005
      TEMPO 1607/1611 SCT005 OVC010
     FM161400 04012G18KT P6SM -DZ OVC010
     FM162000 04008KT P6SM -DZ OVC012
     FM170100 03007KT 5SM -DZ BR OVC008=



000
FTUS42 KGSP 160538
TAFAVL
TAF
KAVL 160538Z 1606/1706 VRB04KT 3SM -DZ BR OVC003
     FM161400 16007KT P6SM -DZ OVC012
     FM170200 17003KT 3SM -DZ BR OVC007=



000
FTUS42 KGSP 160538
TAFCLT
TAF
KCLT 160538Z 1606/1706 05009KT P6SM -RADZ OVC010
      TEMPO 1607/1611 6SM -DZ BR OVC008
     FM161300 05010G16KT P6SM -DZ OVC012
     FM161900 04008KT P6SM -DZ OVC010
     FM170200 04005KT 5SM -DZ BR OVC007=



000
FTUS42 KGSP 160538
TAFAVL
TAF
KAVL 160538Z 1606/1706 VRB04KT 3SM -DZ BR OVC003
     FM161400 16007KT P6SM -DZ OVC012
     FM170200 17003KT 3SM -DZ BR OVC007=



000
FTUS42 KGSP 160538
TAFCLT
TAF
KCLT 160538Z 1606/1706 05009KT P6SM -RADZ OVC010
      TEMPO 1607/1611 6SM -DZ BR OVC008
     FM161300 05010G16KT P6SM -DZ OVC012
     FM161900 04008KT P6SM -DZ OVC010
     FM170200 04005KT 5SM -DZ BR OVC007=



000
FTUS42 KGSP 160538
TAFAVL
TAF
KAVL 160538Z 1606/1706 VRB04KT 3SM -DZ BR OVC003
     FM161400 16007KT P6SM -DZ OVC012
     FM170200 17003KT 3SM -DZ BR OVC007=



000
FTUS42 KGSP 160538
TAFCLT
TAF
KCLT 160538Z 1606/1706 05009KT P6SM -RADZ OVC010
      TEMPO 1607/1611 6SM -DZ BR OVC008
     FM161300 05010G16KT P6SM -DZ OVC012
     FM161900 04008KT P6SM -DZ OVC010
     FM170200 04005KT 5SM -DZ BR OVC007=



000
FTUS42 KGSP 160411 AAA
TAFAVL
TAF AMD
KAVL 160411Z 1604/1624 VRB04KT 6SM -DZ OVC006
     FM160800 09005KT 3SM -DZ BR OVC003
     FM161200 10006KT 5SM BR VCSH OVC008
     FM161500 10006KT P6SM VCSH OVC012
     FM162100 10004KT P6SM VCSH OVC009=



000
FTUS42 KGSP 160411 AAA
TAFAVL
TAF AMD
KAVL 160411Z 1604/1624 VRB04KT 6SM -DZ OVC006
     FM160800 09005KT 3SM -DZ BR OVC003
     FM161200 10006KT 5SM BR VCSH OVC008
     FM161500 10006KT P6SM VCSH OVC012
     FM162100 10004KT P6SM VCSH OVC009=



000
FTUS42 KGSP 160411 AAA
TAFAVL
TAF AMD
KAVL 160411Z 1604/1624 VRB04KT 6SM -DZ OVC006
     FM160800 09005KT 3SM -DZ BR OVC003
     FM161200 10006KT 5SM BR VCSH OVC008
     FM161500 10006KT P6SM VCSH OVC012
     FM162100 10004KT P6SM VCSH OVC009=



000
FTUS42 KGSP 160410 AAC
TAFCLT
TAF AMD
KCLT 160410Z 1604/1624 04009KT 6SM -RADZ BR OVC006
     FM161200 04011KT P6SM VCSH OVC020
     FM161800 03007KT P6SM VCSH OVC009=



000
FTUS42 KGSP 160410 AAC
TAFCLT
TAF AMD
KCLT 160410Z 1604/1624 04009KT 6SM -RADZ BR OVC006
     FM161200 04011KT P6SM VCSH OVC020
     FM161800 03007KT P6SM VCSH OVC009=



000
FTUS42 KGSP 160410 AAC
TAFCLT
TAF AMD
KCLT 160410Z 1604/1624 04009KT 6SM -RADZ BR OVC006
     FM161200 04011KT P6SM VCSH OVC020
     FM161800 03007KT P6SM VCSH OVC009=



000
FTUS42 KGSP 160410 AAC
TAFCLT
TAF AMD
KCLT 160410Z 1604/1624 04009KT 6SM -RADZ BR OVC006
     FM161200 04011KT P6SM VCSH OVC020
     FM161800 03007KT P6SM VCSH OVC009=



000
FTUS42 KGSP 160306 AAB
TAFCLT
TAF AMD
KCLT 160306Z 1603/1624 05010KT 6SM -RADZ BR OVC005
     FM160800 06011KT P6SM OVC011
     FM161200 04011KT P6SM VCSH OVC020
     FM161800 03007KT P6SM VCSH OVC009=



000
FTUS42 KGSP 160306 AAB
TAFCLT
TAF AMD
KCLT 160306Z 1603/1624 05010KT 6SM -RADZ BR OVC005
     FM160800 06011KT P6SM OVC011
     FM161200 04011KT P6SM VCSH OVC020
     FM161800 03007KT P6SM VCSH OVC009=



000
FTUS42 KGSP 160250 AAA
TAFCLT
TAF AMD
KCLT 160250Z 1603/1624 05010KT 5SM -RADZ BR OVC008
     FM160800 06011KT P6SM OVC011
     FM161200 04011KT P6SM VCSH OVC020
     FM161800 03007KT P6SM VCSH OVC009=



000
FTUS42 KGSP 160250 AAA
TAFCLT
TAF AMD
KCLT 160250Z 1603/1624 05010KT 5SM -RADZ BR OVC008
     FM160800 06011KT P6SM OVC011
     FM161200 04011KT P6SM VCSH OVC020
     FM161800 03007KT P6SM VCSH OVC009=



000
FTUS42 KGSP 160250 AAA
TAFCLT
TAF AMD
KCLT 160250Z 1603/1624 05010KT 5SM -RADZ BR OVC008
     FM160800 06011KT P6SM OVC011
     FM161200 04011KT P6SM VCSH OVC020
     FM161800 03007KT P6SM VCSH OVC009=



000
FTUS42 KGSP 160250 AAA
TAFCLT
TAF AMD
KCLT 160250Z 1603/1624 05010KT 5SM -RADZ BR OVC008
     FM160800 06011KT P6SM OVC011
     FM161200 04011KT P6SM VCSH OVC020
     FM161800 03007KT P6SM VCSH OVC009=



000
FTUS42 KGSP 152331
TAFCLT
TAF
KCLT 152331Z 1600/1624 05010KT 5SM -RADZ BR OVC008
     FM160800 06011KT P6SM OVC011
     FM161200 04011KT P6SM VCSH OVC020
     FM161800 03007KT P6SM VCSH OVC009=



000
FTUS42 KGSP 152331
TAFGSP
TAF
KGSP 152331Z 1600/1624 04011KT 5SM -RADZ BR OVC007
     FM160800 05011KT P6SM OVC006
     FM161500 04010KT P6SM VCSH OVC012
     FM162000 04009KT P6SM VCSH OVC009=



000
FTUS42 KGSP 152331
TAFCLT
TAF
KCLT 152331Z 1600/1624 05010KT 5SM -RADZ BR OVC008
     FM160800 06011KT P6SM OVC011
     FM161200 04011KT P6SM VCSH OVC020
     FM161800 03007KT P6SM VCSH OVC009=



000
FTUS42 KGSP 152331
TAFAVL
TAF
KAVL 152331Z 1600/1624 VRB05KT 5SM -RADZ OVC005
     FM160800 09005KT 3SM BR OVC003
     FM161200 10006KT 5SM BR VCSH OVC008
     FM161500 10006KT P6SM VCSH OVC012
     FM162100 10004KT P6SM VCSH OVC009=



000
FTUS42 KGSP 152331
TAFGSP
TAF
KGSP 152331Z 1600/1624 04011KT 5SM -RADZ BR OVC007
     FM160800 05011KT P6SM OVC006
     FM161500 04010KT P6SM VCSH OVC012
     FM162000 04009KT P6SM VCSH OVC009=



000
FTUS42 KGSP 152331
TAFAVL
TAF
KAVL 152331Z 1600/1624 VRB05KT 5SM -RADZ OVC005
     FM160800 09005KT 3SM BR OVC003
     FM161200 10006KT 5SM BR VCSH OVC008
     FM161500 10006KT P6SM VCSH OVC012
     FM162100 10004KT P6SM VCSH OVC009=



000
FTUS42 KGSP 152331
TAFAVL
TAF
KAVL 152331Z 1600/1624 VRB05KT 5SM -RADZ OVC005
     FM160800 09005KT 3SM BR OVC003
     FM161200 10006KT 5SM BR VCSH OVC008
     FM161500 10006KT P6SM VCSH OVC012
     FM162100 10004KT P6SM VCSH OVC009=



000
FTUS42 KGSP 152331
TAFCLT
TAF
KCLT 152331Z 1600/1624 05010KT 5SM -RADZ BR OVC008
     FM160800 06011KT P6SM OVC011
     FM161200 04011KT P6SM VCSH OVC020
     FM161800 03007KT P6SM VCSH OVC009=



000
FTUS42 KGSP 152331
TAFAVL
TAF
KAVL 152331Z 1600/1624 VRB05KT 5SM -RADZ OVC005
     FM160800 09005KT 3SM BR OVC003
     FM161200 10006KT 5SM BR VCSH OVC008
     FM161500 10006KT P6SM VCSH OVC012
     FM162100 10004KT P6SM VCSH OVC009=



000
FTUS42 KGSP 152331
TAFCLT
TAF
KCLT 152331Z 1600/1624 05010KT 5SM -RADZ BR OVC008
     FM160800 06011KT P6SM OVC011
     FM161200 04011KT P6SM VCSH OVC020
     FM161800 03007KT P6SM VCSH OVC009=



000
FTUS42 KGSP 152058 AAB
TAFCLT
TAF AMD
KCLT 152058Z 1521/1618 05012KT 4SM RA BKN008 OVC025
      TEMPO 1521/1523 P6SM -RA OVC025
     FM160000 06009KT 5SM -RADZ BR OVC008
     FM160800 06010KT P6SM OVC009
     FM161200 05010KT P6SM OVC015=



000
FTUS42 KGSP 152058 AAB
TAFCLT
TAF AMD
KCLT 152058Z 1521/1618 05012KT 4SM RA BKN008 OVC025
      TEMPO 1521/1523 P6SM -RA OVC025
     FM160000 06009KT 5SM -RADZ BR OVC008
     FM160800 06010KT P6SM OVC009
     FM161200 05010KT P6SM OVC015=



000
FTUS42 KGSP 152021 AAA
TAFAVL
TAF AMD
KAVL 152021Z 1520/1618 16005KT 2SM -RA BKN009 OVC020
      TEMPO 1521/1523 SCT009 OVC020
     FM160600 16007KT P6SM -RADZ OVC006
     FM160800 16005KT 5SM BR OVC003
     FM161200 06006KT 5SM BR OVC008=



000
FTUS42 KGSP 152021 AAA
TAFAVL
TAF AMD
KAVL 152021Z 1520/1618 16005KT 2SM -RA BKN009 OVC020
      TEMPO 1521/1523 SCT009 OVC020
     FM160600 16007KT P6SM -RADZ OVC006
     FM160800 16005KT 5SM BR OVC003
     FM161200 06006KT 5SM BR OVC008=



000
FTUS42 KGSP 152021 AAA
TAFAVL
TAF AMD
KAVL 152021Z 1520/1618 16005KT 2SM -RA BKN009 OVC020
      TEMPO 1521/1523 SCT009 OVC020
     FM160600 16007KT P6SM -RADZ OVC006
     FM160800 16005KT 5SM BR OVC003
     FM161200 06006KT 5SM BR OVC008=



000
FTUS42 KGSP 152021 AAA
TAFAVL
TAF AMD
KAVL 152021Z 1520/1618 16005KT 2SM -RA BKN009 OVC020
      TEMPO 1521/1523 SCT009 OVC020
     FM160600 16007KT P6SM -RADZ OVC006
     FM160800 16005KT 5SM BR OVC003
     FM161200 06006KT 5SM BR OVC008=



000
FTUS42 KGSP 152016 AAA
TAFCLT
TAF AMD
KCLT 152016Z 1520/1618 04012KT 5SM -RA BKN008 OVC025
     FM160000 06009KT 5SM -RADZ BR OVC008
     FM160800 06010KT P6SM OVC009
     FM161200 05010KT P6SM OVC015=



000
FTUS42 KGSP 152016 AAA
TAFCLT
TAF AMD
KCLT 152016Z 1520/1618 04012KT 5SM -RA BKN008 OVC025
     FM160000 06009KT 5SM -RADZ BR OVC008
     FM160800 06010KT P6SM OVC009
     FM161200 05010KT P6SM OVC015=



000
FTUS42 KGSP 151726
TAFCLT
TAF
KCLT 151726Z 1518/1618 04009G18KT 1 1/2SM SHRA BR BKN008 OVC013
     FM152000 04012KT 6SM -RA SCT008 OVC018
     FM160000 06009KT 5SM -RADZ BR OVC008
     FM160800 06010KT P6SM OVC009
     FM161200 05010KT P6SM OVC015=



000
FTUS42 KGSP 151726
TAFAVL
TAF
KAVL 151726Z 1518/1618 16005KT 5SM -RA BKN009 OVC020
      TEMPO 1518/1520 SCT009 OVC020
     FM152000 16005KT P6SM SCT008 OVC020
     FM160600 16007KT P6SM -RADZ OVC006
     FM160800 16005KT 5SM BR OVC003
     FM161200 06006KT 5SM BR OVC008=



000
FTUS42 KGSP 151726
TAFGSP
TAF
KGSP 151726Z 1518/1618 04010G18KT 5SM -RA BKN010 OVC030
     FM152000 04010KT P6SM -RA SCT007 OVC015
     FM152200 04011KT 6SM -RADZ BR OVC007
     FM160600 05010KT P6SM OVC006
     FM161400 04012KT P6SM OVC012=



000
FTUS42 KGSP 151726
TAFAVL
TAF
KAVL 151726Z 1518/1618 16005KT 5SM -RA BKN009 OVC020
      TEMPO 1518/1520 SCT009 OVC020
     FM152000 16005KT P6SM SCT008 OVC020
     FM160600 16007KT P6SM -RADZ OVC006
     FM160800 16005KT 5SM BR OVC003
     FM161200 06006KT 5SM BR OVC008=



000
FTUS42 KGSP 151726
TAFCLT
TAF
KCLT 151726Z 1518/1618 04009G18KT 1 1/2SM SHRA BR BKN008 OVC013
     FM152000 04012KT 6SM -RA SCT008 OVC018
     FM160000 06009KT 5SM -RADZ BR OVC008
     FM160800 06010KT P6SM OVC009
     FM161200 05010KT P6SM OVC015=



000
FTUS42 KGSP 151456 AAA
TAFCLT
TAF AMD
KCLT 151456Z 1515/1612 05009G18KT P6SM -RA BKN006 OVC010
     FM151700 05011G18KT 5SM -RA BR OVC008
      TEMPO 1517/1519 2SM SHRA BKN005 OVC010
     FM152000 04008G16KT 5SM -RA BR OVC007
     FM160700 05010KT P6SM OVC012=



000
FTUS42 KGSP 151456 AAA
TAFCLT
TAF AMD
KCLT 151456Z 1515/1612 05009G18KT P6SM -RA BKN006 OVC010
     FM151700 05011G18KT 5SM -RA BR OVC008
      TEMPO 1517/1519 2SM SHRA BKN005 OVC010
     FM152000 04008G16KT 5SM -RA BR OVC007
     FM160700 05010KT P6SM OVC012=



000
FTUS42 KGSP 151449 AAC
TAFGSP
TAF AMD
KGSP 151449Z 1515/1612 06010G18KT 6SM -SHRA BR OVC008
      TEMPO 1515/1517 2SM -RA BR BKN005 OVC010
     FM151700 04011G17KT 5SM -RA BR OVC010
     FM160000 04011KT 6SM -RA BR OVC007
     FM160800 05010KT P6SM OVC010=



000
FTUS42 KGSP 151320 AAB
TAFAVL
TAF AMD
KAVL 151320Z 1513/1612 35006KT 2SM -SHRA BR OVC004
      TEMPO 1513/1517 5SM -SHRA BR OVC008
     FM151700 16008KT 5SM -RA BR OVC008
     FM160300 15007KT 4SM -RA BR OVC006=



000
FTUS42 KGSP 151320 AAB
TAFAVL
TAF AMD
KAVL 151320Z 1513/1612 35006KT 2SM -SHRA BR OVC004
      TEMPO 1513/1517 5SM -SHRA BR OVC008
     FM151700 16008KT 5SM -RA BR OVC008
     FM160300 15007KT 4SM -RA BR OVC006=



000
FTUS42 KGSP 151320 AAB
TAFAVL
TAF AMD
KAVL 151320Z 1513/1612 35006KT 2SM -SHRA BR OVC004
      TEMPO 1513/1517 5SM -SHRA BR OVC008
     FM151700 16008KT 5SM -RA BR OVC008
     FM160300 15007KT 4SM -RA BR OVC006=



000
FTUS42 KGSP 151212 AAA
TAFAVL
TAF AMD
KAVL 151212Z 1512/1612 35006KT 5SM -SHRA BR OVC004
      TEMPO 1512/1516 6SM -SHRA BR OVC008
     FM151600 16008KT 5SM -RA BR OVC008
     FM160300 15007KT 4SM -RA BR OVC006=



000
FTUS42 KGSP 151212 AAA
TAFAVL
TAF AMD
KAVL 151212Z 1512/1612 35006KT 5SM -SHRA BR OVC004
      TEMPO 1512/1516 6SM -SHRA BR OVC008
     FM151600 16008KT 5SM -RA BR OVC008
     FM160300 15007KT 4SM -RA BR OVC006=



000
FTUS42 KGSP 151212 AAA
TAFAVL
TAF AMD
KAVL 151212Z 1512/1612 35006KT 5SM -SHRA BR OVC004
      TEMPO 1512/1516 6SM -SHRA BR OVC008
     FM151600 16008KT 5SM -RA BR OVC008
     FM160300 15007KT 4SM -RA BR OVC006=



000
FTUS42 KGSP 151212 AAA
TAFAVL
TAF AMD
KAVL 151212Z 1512/1612 35006KT 5SM -SHRA BR OVC004
      TEMPO 1512/1516 6SM -SHRA BR OVC008
     FM151600 16008KT 5SM -RA BR OVC008
     FM160300 15007KT 4SM -RA BR OVC006=



000
FTUS42 KGSP 151124
TAFGSP
TAF
KGSP 151124Z 1512/1612 06010KT 6SM -SHRA BR OVC008
      TEMPO 1513/1517 4SM -RA BR OVC010
     FM151700 04011G17KT 5SM -RA BR OVC010
     FM160000 04011KT 6SM -RA BR OVC007
     FM160800 05010KT P6SM OVC010=



000
FTUS42 KGSP 151124
TAFCLT
TAF
KCLT 151124Z 1512/1612 05011KT 6SM -RA BR OVC007
     FM151700 05011G17KT 5SM -RA BR OVC010
     FM152000 04012G18KT 4SM -RA BR OVC007
     FM160700 05010KT P6SM OVC012=



000
FTUS42 KGSP 151124
TAFAVL
TAF
KAVL 151124Z 1512/1612 35006KT 6SM -SHRA BR OVC009
      TEMPO 1512/1516 4SM -SHRA BR OVC008
     FM151600 16008KT 5SM -RA BR OVC008
     FM160300 15007KT 4SM -RA BR OVC006=



000
FTUS42 KGSP 151124
TAFCLT
TAF
KCLT 151124Z 1512/1612 05011KT 6SM -RA BR OVC007
     FM151700 05011G17KT 5SM -RA BR OVC010
     FM152000 04012G18KT 4SM -RA BR OVC007
     FM160700 05010KT P6SM OVC012=



000
FTUS42 KGSP 151124
TAFAVL
TAF
KAVL 151124Z 1512/1612 35006KT 6SM -SHRA BR OVC009
      TEMPO 1512/1516 4SM -SHRA BR OVC008
     FM151600 16008KT 5SM -RA BR OVC008
     FM160300 15007KT 4SM -RA BR OVC006=



000
FTUS42 KGSP 151024 AAC
TAFAVL
TAF AMD
KAVL 151024Z 1510/1606 35005KT 6SM -SHRA BR OVC008
     FM151200 35007KT 3SM -RA BR OVC007
     FM151500 01008KT 2SM -RA BR OVC007
     FM160000 13006KT 3SM -RA BR OVC006=



000
FTUS42 KGSP 151024 AAC
TAFAVL
TAF AMD
KAVL 151024Z 1510/1606 35005KT 6SM -SHRA BR OVC008
     FM151200 35007KT 3SM -RA BR OVC007
     FM151500 01008KT 2SM -RA BR OVC007
     FM160000 13006KT 3SM -RA BR OVC006=



000
FTUS42 KGSP 151024 AAC
TAFAVL
TAF AMD
KAVL 151024Z 1510/1606 35005KT 6SM -SHRA BR OVC008
     FM151200 35007KT 3SM -RA BR OVC007
     FM151500 01008KT 2SM -RA BR OVC007
     FM160000 13006KT 3SM -RA BR OVC006=



000
FTUS42 KGSP 151024 AAC
TAFAVL
TAF AMD
KAVL 151024Z 1510/1606 35005KT 6SM -SHRA BR OVC008
     FM151200 35007KT 3SM -RA BR OVC007
     FM151500 01008KT 2SM -RA BR OVC007
     FM160000 13006KT 3SM -RA BR OVC006=



000
FTUS42 KGSP 151023 AAB
TAFCLT
TAF AMD
KCLT 151023Z 1510/1606 04010KT P6SM -RA OVC005
     FM151700 03011G17KT 3SM -RA BR OVC006
     FM152200 04012G20KT 2SM -RA BR OVC005=



000
FTUS42 KGSP 151023 AAB
TAFCLT
TAF AMD
KCLT 151023Z 1510/1606 04010KT P6SM -RA OVC005
     FM151700 03011G17KT 3SM -RA BR OVC006
     FM152200 04012G20KT 2SM -RA BR OVC005=



000
FTUS42 KGSP 151023 AAC
TAFGSP
TAF AMD
KGSP 151023Z 1510/1606 04011KT P6SM -RA OVC008
     FM151400 05010G17KT 4SM -RA BR OVC007
     FM152000 04011G20KT 2SM -RA OVC006=



000
FTUS42 KGSP 150938 AAB
TAFAVL
TAF AMD
KAVL 150938Z 1510/1606 35005KT 4SM -SHRA BR OVC009
     FM151200 35008KT 3SM -RA BR OVC010
     FM151500 01009KT 2SM -RA BR OVC008
     FM160000 13006KT 3SM -RA BR OVC006=



000
FTUS42 KGSP 150938 AAB
TAFAVL
TAF AMD
KAVL 150938Z 1510/1606 35005KT 4SM -SHRA BR OVC009
     FM151200 35008KT 3SM -RA BR OVC010
     FM151500 01009KT 2SM -RA BR OVC008
     FM160000 13006KT 3SM -RA BR OVC006=



000
FTUS42 KGSP 150937 AAB
TAFGSP
TAF AMD
KGSP 150937Z 1510/1606 04011KT P6SM -RA OVC010
     FM151300 05010G17KT 4SM -RA BR OVC008
     FM152000 04011G20KT 2SM -RA OVC006=



000
FTUS42 KGSP 150903 AAA
TAFAVL
TAF AMD
KAVL 150903Z 1509/1606 35005KT 6SM -SHRA BR OVC015
     FM151200 35008KT 3SM -RA BR OVC010
     FM151500 01009KT 2SM -RA BR OVC008
     FM160000 13006KT 3SM -RA BR OVC006=



000
FTUS42 KGSP 150903 AAA
TAFAVL
TAF AMD
KAVL 150903Z 1509/1606 35005KT 6SM -SHRA BR OVC015
     FM151200 35008KT 3SM -RA BR OVC010
     FM151500 01009KT 2SM -RA BR OVC008
     FM160000 13006KT 3SM -RA BR OVC006=



000
FTUS42 KGSP 150857 AAC
TAFGSP
TAF AMD
KGSP 150857Z 1509/1606 04011KT P6SM -RA OVC008
     FM151300 05010G17KT 4SM -RA BR OVC008
     FM152000 04011G20KT 2SM -RA OVC006=



000
FTUS42 KGSP 150857 AAC
TAFGSP
TAF AMD
KGSP 150857Z 1509/1606 04011KT P6SM -RA OVC008
     FM151300 05010G17KT 4SM -RA BR OVC008
     FM152000 04011G20KT 2SM -RA OVC006=



000
FTUS42 KGSP 150755 AAC
TAFGSP
TAF AMD
KGSP 150755Z 1508/1606 04008KT P6SM -RA SCT006 BKN060
      TEMPO 1508/1511 5SM -RA BR OVC006
     FM151100 04009KT 6SM -SHRA BR OVC010
     FM151300 05009G17KT 3SM -RA BR OVC008
     FM152000 04011G20KT 2SM -RA OVC006=



000
FTUS42 KGSP 150717 AAB
TAFGSP
TAF AMD
KGSP 150717Z 1507/1606 03006KT P6SM -RA BKN060
     FM150900 04008KT P6SM BKN020
     FM151100 04009KT 6SM -SHRA BR OVC010
     FM151300 05009G17KT 3SM -RA BR OVC008
     FM152000 04011G20KT 2SM -RA OVC006=



000
FTUS42 KGSP 150716 AAA
TAFCLT
TAF AMD
KCLT 150716Z 1507/1606 04011KT P6SM OVC007
     FM151700 03011G17KT 3SM -RA BR OVC006
     FM152200 04012G20KT 2SM -RA BR OVC005=



000
FTUS42 KGSP 150539
TAFCLT
TAF
KCLT 150539Z 1506/1606 03008KT P6SM OVC007
      TEMPO 1506/1510 SCT007 OVC010
     FM151300 05012KT P6SM OVC006
     FM151700 03011G17KT 3SM -RA BR OVC006
     FM152200 04012G20KT 2SM -RA BR OVC005=



000
FTUS42 KGSP 150539
TAFGSP
TAF
KGSP 150539Z 1506/1606 22003KT P6SM BKN060
     FM150900 04006KT P6SM BKN020
     FM151100 04008KT 6SM -SHRA BR OVC010
     FM151300 05009G17KT 3SM -RA BR OVC008
     FM152000 04011G20KT 2SM -RA OVC006=



000
FTUS42 KGSP 150539
TAFAVL
TAF
KAVL 150539Z 1506/1606 34007KT P6SM BKN050
     FM150900 35005KT 5SM -SHRA BR OVC025
     FM151200 35008KT 3SM -RA BR OVC012
     FM151500 01009KT 2SM -RA BR OVC008
     FM160000 13006KT 3SM -RA BR OVC006=



000
FTUS42 KGSP 150539
TAFCLT
TAF
KCLT 150539Z 1506/1606 03008KT P6SM OVC007
      TEMPO 1506/1510 SCT007 OVC010
     FM151300 05012KT P6SM OVC006
     FM151700 03011G17KT 3SM -RA BR OVC006
     FM152200 04012G20KT 2SM -RA BR OVC005=



000
FTUS42 KGSP 150539
TAFAVL
TAF
KAVL 150539Z 1506/1606 34007KT P6SM BKN050
     FM150900 35005KT 5SM -SHRA BR OVC025
     FM151200 35008KT 3SM -RA BR OVC012
     FM151500 01009KT 2SM -RA BR OVC008
     FM160000 13006KT 3SM -RA BR OVC006=



    US Dept of Commerce
    National Oceanic and Atmospheric Administration
    National Weather Service
    1325 East West Highway
    Silver Spring, MD 20910
    Page Author: NWS Internet Services Team
Disclaimer
Information Quality
Credits
Glossary
Privacy Policy
Freedom of Information Act (FOIA)
About Us
Career Opportunities